createdAt,value
2019-02-28T00:00:51.758Z,52.00
2019-02-28T00:03:21.502Z,52.13
2019-02-28T00:05:51.160Z,51.88
2019-02-28T00:08:21.200Z,52.39
2019-02-28T00:10:50.880Z,52.87
2019-02-28T00:13:21.675Z,52.85
2019-02-28T00:15:52.799Z,52.92
2019-02-28T00:18:22.606Z,52.83
2019-02-28T00:20:52.636Z,52.86
2019-02-28T00:23:22.833Z,53.25
2019-02-28T00:25:52.410Z,52.73
2019-02-28T00:28:23.067Z,53.15
2019-02-28T00:30:53.878Z,53.75
2019-02-28T00:33:23.410Z,53.84
2019-02-28T00:35:53.218Z,53.80
2019-02-28T00:38:22.963Z,53.79
2019-02-28T00:40:52.868Z,53.91
2019-02-28T00:43:25.194Z,53.78
2019-02-28T00:45:53.840Z,53.72
2019-02-28T00:48:23.651Z,54.21
2019-02-28T00:50:53.584Z,54.72
2019-02-28T00:53:23.238Z,54.72
2019-02-28T00:55:52.793Z,54.96
2019-02-28T00:58:22.393Z,55.25
2019-02-28T01:00:52.033Z,55.45
2019-02-28T01:03:26.412Z,55.95
2019-02-28T01:05:53.312Z,56.08
2019-02-28T01:08:23.381Z,56.22
2019-02-28T01:10:52.988Z,56.53
2019-02-28T01:13:27.268Z,56.59
2019-02-28T01:15:54.569Z,56.33
2019-02-28T01:18:24.168Z,56.55
2019-02-28T01:20:53.765Z,56.49
2019-02-28T01:23:23.394Z,56.90
2019-02-28T01:25:52.965Z,56.89
2019-02-28T01:28:26.906Z,57.14
2019-02-28T01:30:57.182Z,57.49
2019-02-28T01:33:27.069Z,57.42
2019-02-28T01:35:56.686Z,57.32
2019-02-28T01:38:26.236Z,57.13
2019-02-28T01:40:56.036Z,57.49
2019-02-28T01:43:28.946Z,57.81
2019-02-28T01:45:59.461Z,58.29
2019-02-28T01:48:29.186Z,57.93
2019-02-28T01:51:00.796Z,58.33
2019-02-28T01:53:30.527Z,58.51
2019-02-28T01:56:02.502Z,59.34
2019-02-28T01:58:31.541Z,59.44
2019-02-28T02:01:01.586Z,58.96
2019-02-28T02:03:31.211Z,59.13
2019-02-28T02:06:01.681Z,59.29
2019-02-28T02:08:31.247Z,59.28
2019-02-28T02:11:20.196Z,59.62
2019-02-28T02:13:49.847Z,59.09
2019-02-28T02:16:19.628Z,59.42
2019-02-28T02:18:49.170Z,59.19
2019-02-28T02:21:19.718Z,59.10
2019-02-28T02:23:52.965Z,58.98
2019-02-28T02:26:21.078Z,59.41
2019-02-28T02:28:50.706Z,59.21
2019-02-28T02:31:27.133Z,59.25
2019-02-28T02:33:52.742Z,59.44
2019-02-28T02:36:22.737Z,59.75
2019-02-28T02:38:52.358Z,60.57
2019-02-28T02:41:22.149Z,60.22
2019-02-28T02:43:55.074Z,60.33
2019-02-28T02:46:23.009Z,60.45
2019-02-28T02:48:52.582Z,60.85
2019-02-28T02:51:22.324Z,60.53
2019-02-28T02:53:51.824Z,60.18
2019-02-28T02:56:21.391Z,60.57
2019-02-28T02:58:51.134Z,60.47
2019-02-28T03:01:23.149Z,60.90
2019-02-28T03:03:52.180Z,61.37
2019-02-28T03:06:21.900Z,61.15
2019-02-28T03:08:51.620Z,61.61
2019-02-28T03:11:24.684Z,62.27
2019-02-28T03:13:54.115Z,62.24
2019-02-28T03:16:23.740Z,62.32
2019-02-28T03:18:56.879Z,62.56
2019-02-28T03:21:24.651Z,62.03
2019-02-28T03:23:56.373Z,61.80
2019-02-28T03:26:26.150Z,62.06
2019-02-28T03:28:56.117Z,62.11
2019-02-28T03:31:25.974Z,62.17
2019-02-28T03:33:55.662Z,62.42
2019-02-28T03:36:25.387Z,62.32
2019-02-28T03:38:55.100Z,62.87
2019-02-28T03:41:24.624Z,63.00
2019-02-28T03:43:54.210Z,62.90
2019-02-28T03:46:23.901Z,63.41
2019-02-28T03:48:55.762Z,63.98
2019-02-28T03:51:28.449Z,63.49
2019-02-28T03:53:57.705Z,63.41
2019-02-28T03:56:27.379Z,63.60
2019-02-28T03:58:57.096Z,63.76
2019-02-28T04:01:28.424Z,63.39
2019-02-28T04:03:58.021Z,63.90
2019-02-28T04:06:28.969Z,63.90
2019-02-28T04:09:07.086Z,63.59
2019-02-28T04:11:31.130Z,63.89
2019-02-28T04:14:01.993Z,64.34
2019-02-28T04:16:31.709Z,65.04
2019-02-28T04:19:01.692Z,64.67
2019-02-28T04:21:31.871Z,64.38
2019-02-28T04:24:01.529Z,64.44
2019-02-28T04:26:31.159Z,64.72
2019-02-28T04:29:01.987Z,64.80
2019-02-28T04:31:31.615Z,64.85
2019-02-28T04:34:01.165Z,64.68
2019-02-28T04:36:35.413Z,65.17
2019-02-28T04:39:02.007Z,65.54
2019-02-28T04:41:32.969Z,66.54
2019-02-28T04:44:05.445Z,66.08
2019-02-28T04:46:35.171Z,65.29
2019-02-28T04:49:04.776Z,65.21
2019-02-28T04:51:37.039Z,66.38
2019-02-28T04:54:06.307Z,66.39
2019-02-28T04:56:35.944Z,66.53
2019-02-28T04:59:10.296Z,65.89
2019-02-28T05:01:39.875Z,66.14
2019-02-28T05:04:10.795Z,65.98
2019-02-28T05:06:41.657Z,66.57
2019-02-28T05:09:14.492Z,66.79
2019-02-28T05:11:42.626Z,66.89
2019-02-28T05:14:12.807Z,66.83
2019-02-28T05:16:47.178Z,66.76
2019-02-28T05:19:13.809Z,66.61
2019-02-28T05:21:43.469Z,67.24
2019-02-28T05:24:13.093Z,67.37
2019-02-28T05:26:42.767Z,67.47
2019-02-28T05:29:13.095Z,67.13
2019-02-28T05:31:43.089Z,66.86
2019-02-28T05:34:16.035Z,67.34
2019-02-28T05:36:46.123Z,67.70
2019-02-28T05:39:15.751Z,68.30
2019-02-28T05:41:49.107Z,68.37
2019-02-28T05:44:16.757Z,68.46
2019-02-28T05:46:46.362Z,67.92
2019-02-28T05:49:16.405Z,68.72
2019-02-28T05:51:48.159Z,69.44
2019-02-28T05:54:18.191Z,69.17
2019-02-28T05:56:48.369Z,68.07
2019-02-28T05:59:17.919Z,68.78
2019-02-28T06:01:47.720Z,68.83
2019-02-28T06:04:17.888Z,68.76
2019-02-28T06:06:47.588Z,69.12
2019-02-28T06:09:18.757Z,69.43
2019-02-28T06:11:48.446Z,69.98
2019-02-28T06:14:18.614Z,69.54
2019-02-28T06:16:48.417Z,69.62
2019-02-28T06:19:19.730Z,71.68
2019-02-28T06:21:53.058Z,70.95
2019-02-28T06:24:22.747Z,71.19
2019-02-28T06:26:52.347Z,71.42
2019-02-28T06:29:22.416Z,69.69
2019-02-28T06:31:53.449Z,69.13
2019-02-28T06:34:23.047Z,69.10
2019-02-28T06:36:52.868Z,68.68
2019-02-28T06:39:22.434Z,68.15
2019-02-28T06:41:52.031Z,67.83
2019-02-28T06:44:24.187Z,67.03
2019-02-28T06:46:53.038Z,66.38
2019-02-28T06:49:22.796Z,66.33
2019-02-28T06:51:52.889Z,65.66
2019-02-28T06:54:22.551Z,65.05
2019-02-28T06:56:54.114Z,63.84
2019-02-28T06:59:26.807Z,62.28
2019-02-28T07:01:57.699Z,60.94
2019-02-28T07:04:27.623Z,61.77
2019-02-28T07:06:57.558Z,60.03
2019-02-28T07:09:27.155Z,61.71
2019-02-28T07:11:56.897Z,60.80
2019-02-28T07:14:26.677Z,59.39
2019-02-28T07:16:59.122Z,57.66
2019-02-28T07:19:28.894Z,57.30
2019-02-28T07:22:00.756Z,55.45
2019-02-28T07:24:37.239Z,54.59
2019-02-28T07:27:04.181Z,53.38
2019-02-28T07:29:33.735Z,53.79
2019-02-28T07:32:03.421Z,53.06
2019-02-28T07:34:33.959Z,51.79
2019-02-28T07:37:04.196Z,51.61
2019-02-28T07:39:36.540Z,50.79
2019-02-28T07:42:05.382Z,49.88
2019-02-28T07:44:35.068Z,49.55
2019-02-28T07:47:05.021Z,48.41
2019-02-28T07:49:36.753Z,47.69
2019-02-28T07:52:06.639Z,47.70
2019-02-28T07:54:36.333Z,48.64
2019-02-28T07:57:06.039Z,50.31
2019-02-28T07:59:40.967Z,51.68
2019-02-28T08:02:07.068Z,52.52
2019-02-28T08:04:36.689Z,55.84
2019-02-28T08:07:06.624Z,56.41
2019-02-28T08:09:36.859Z,57.63
2019-02-28T08:12:07.956Z,58.45
2019-02-28T08:14:39.675Z,58.29
2019-02-28T08:17:15.921Z,58.33
2019-02-28T08:19:45.352Z,59.66
2019-02-28T08:22:23.379Z,59.82
2019-02-28T08:24:47.199Z,60.69
2019-02-28T08:27:16.941Z,61.56
2019-02-28T08:29:46.677Z,61.46
2019-02-28T08:32:16.471Z,59.47
2019-02-28T08:34:50.065Z,57.74
2019-02-28T08:37:21.885Z,57.95
2019-02-28T08:39:51.413Z,58.32
2019-02-28T08:42:21.053Z,56.06
2019-02-28T08:44:50.575Z,53.30
2019-02-28T08:47:21.157Z,52.91
2019-02-28T08:49:51.635Z,52.18
2019-02-28T08:52:21.202Z,54.52
2019-02-28T08:54:50.766Z,56.05
2019-02-28T08:57:21.940Z,55.07
2019-02-28T08:59:52.533Z,53.69
2019-02-28T09:02:23.314Z,51.22
2019-02-28T09:04:53.279Z,52.57
2019-02-28T09:07:22.912Z,53.10
2019-02-28T09:09:52.686Z,54.85
2019-02-28T09:12:22.539Z,55.39
2019-02-28T09:14:55.340Z,56.97
2019-02-28T09:17:23.781Z,58.10
2019-02-28T09:19:53.428Z,58.24
2019-02-28T09:22:26.835Z,58.84
2019-02-28T09:24:57.490Z,60.15
2019-02-28T09:27:29.377Z,62.02
2019-02-28T09:29:59.069Z,63.28
2019-02-28T09:32:28.693Z,63.54
2019-02-28T09:34:58.539Z,63.25
2019-02-28T09:37:29.917Z,62.57
2019-02-28T09:40:00.011Z,63.76
2019-02-28T09:42:31.674Z,63.79
2019-02-28T09:45:06.435Z,64.05
2019-02-28T09:47:32.984Z,64.76
2019-02-28T09:50:02.713Z,64.21
2019-02-28T09:52:32.450Z,64.35
2019-02-28T09:55:02.044Z,63.90
2019-02-28T09:57:31.757Z,64.07
2019-02-28T10:00:01.539Z,63.75
2019-02-28T10:02:31.219Z,63.81
2019-02-28T10:05:02.943Z,64.54
2019-02-28T10:07:32.481Z,64.71
2019-02-28T10:10:02.179Z,65.04
2019-02-28T10:12:31.887Z,64.63
2019-02-28T10:15:07.000Z,64.71
2019-02-28T10:17:33.034Z,64.81
2019-02-28T10:20:04.775Z,65.78
2019-02-28T10:22:34.664Z,66.67
2019-02-28T10:25:06.514Z,66.24
2019-02-28T10:27:36.521Z,65.85
2019-02-28T10:30:16.777Z,65.99
2019-02-28T10:32:46.871Z,65.77
2019-02-28T10:35:18.537Z,65.07
2019-02-28T10:37:49.305Z,64.95
2019-02-28T10:40:31.277Z,64.81
2019-02-28T10:43:00.985Z,64.33
2019-02-28T10:45:30.932Z,63.98
2019-02-28T10:48:03.953Z,65.98
2019-02-28T10:50:34.368Z,65.66
2019-02-28T10:53:06.135Z,65.32
2019-02-28T10:55:39.470Z,64.78
2019-02-28T10:58:09.380Z,64.96
2019-02-28T11:00:46.649Z,64.22
2019-02-28T11:03:16.659Z,64.72
2019-02-28T11:05:46.954Z,65.00
2019-02-28T11:08:19.236Z,65.76
2019-02-28T11:10:49.158Z,65.19
2019-02-28T11:13:22.735Z,64.91
2019-02-28T11:15:53.090Z,64.45
2019-02-28T11:18:22.772Z,64.44
2019-02-28T11:20:52.384Z,64.42
2019-02-28T11:23:23.642Z,64.20
2019-02-28T11:25:53.759Z,64.56
2019-02-28T11:28:27.923Z,64.48
2019-02-28T11:30:57.098Z,65.78
2019-02-28T11:33:27.089Z,66.93
2019-02-28T11:35:59.093Z,66.80
2019-02-28T11:38:28.820Z,66.82
2019-02-28T11:40:58.601Z,67.56
2019-02-28T11:43:28.275Z,67.47
2019-02-28T11:46:00.794Z,67.21
2019-02-28T11:48:30.618Z,67.05
2019-02-28T11:51:00.225Z,66.99
2019-02-28T11:53:29.930Z,66.98
2019-02-28T11:56:01.308Z,66.90
2019-02-28T11:58:31.226Z,67.92
2019-02-28T12:01:02.304Z,67.63
2019-02-28T12:03:35.492Z,67.02
2019-02-28T12:06:03.864Z,66.91
2019-02-28T12:08:33.675Z,67.32
2019-02-28T12:11:03.220Z,66.94
2019-02-28T12:13:32.837Z,66.54
2019-02-28T12:16:03.570Z,65.72
2019-02-28T12:18:33.265Z,66.78
2019-02-28T12:21:04.918Z,67.27
2019-02-28T12:23:34.279Z,66.68
2019-02-28T12:26:04.024Z,66.97
2019-02-28T12:28:35.230Z,66.79
2019-02-28T12:31:08.153Z,66.17
2019-02-28T12:33:37.824Z,66.67
2019-02-28T12:36:07.570Z,67.51
2019-02-28T12:38:39.876Z,67.62
2019-02-28T12:41:09.422Z,66.60
2019-02-28T12:43:40.564Z,66.11
2019-02-28T12:46:10.861Z,65.74
2019-02-28T12:48:40.449Z,65.86
2019-02-28T12:51:10.516Z,65.30
2019-02-28T12:53:40.253Z,65.77
2019-02-28T12:56:29.126Z,65.03
2019-02-28T12:58:58.759Z,64.56
2019-02-28T13:01:28.440Z,63.84
2019-02-28T13:04:00.603Z,63.97
2019-02-28T13:06:30.564Z,65.00
2019-02-28T13:09:00.153Z,64.64
2019-02-28T13:11:29.672Z,64.99
2019-02-28T13:14:00.036Z,65.65
2019-02-28T13:16:30.627Z,65.52
2019-02-28T13:19:00.263Z,65.86
2019-02-28T13:21:31.219Z,65.32
2019-02-28T13:24:01.344Z,65.08
2019-02-28T13:26:33.693Z,65.44
2019-02-28T13:29:02.836Z,65.22
2019-02-28T13:31:32.466Z,65.07
2019-02-28T13:34:02.072Z,65.04
2019-02-28T13:36:31.715Z,65.27
2019-02-28T13:39:01.390Z,65.01
2019-02-28T13:41:31.404Z,64.54
2019-02-28T13:44:01.033Z,64.67
2019-02-28T13:46:33.988Z,64.96
2019-02-28T13:49:02.071Z,66.02
2019-02-28T13:51:32.786Z,66.45
2019-02-28T13:54:06.388Z,66.30
2019-02-28T13:56:34.625Z,66.89
2019-02-28T13:59:04.340Z,66.29
2019-02-28T14:01:34.211Z,65.91
2019-02-28T14:04:03.871Z,66.05
2019-02-28T14:06:33.846Z,66.19
2019-02-28T14:09:04.745Z,64.94
2019-02-28T14:11:34.274Z,65.44
2019-02-28T14:14:06.363Z,65.17
2019-02-28T14:16:35.248Z,65.55
2019-02-28T14:19:05.189Z,65.56
2019-02-28T14:21:37.065Z,65.50
2019-02-28T14:24:06.182Z,65.28
2019-02-28T14:26:42.537Z,65.35
2019-02-28T14:29:10.487Z,64.63
2019-02-28T14:31:38.587Z,64.48
2019-02-28T14:34:08.818Z,64.86
2019-02-28T14:36:41.787Z,66.48
2019-02-28T14:39:12.355Z,66.25
2019-02-28T14:41:41.958Z,65.86
2019-02-28T14:44:11.706Z,65.69
2019-02-28T14:46:41.426Z,66.63
2019-02-28T14:49:12.500Z,67.03
2019-02-28T14:51:42.781Z,67.82
2019-02-28T14:54:12.339Z,68.37
2019-02-28T14:56:42.971Z,68.50
2019-02-28T14:59:12.742Z,67.84
2019-02-28T15:01:42.394Z,68.86
2019-02-28T15:04:11.891Z,69.58
2019-02-28T15:06:41.439Z,69.45
2019-02-28T15:09:16.674Z,69.29
2019-02-28T15:11:46.839Z,69.95
2019-02-28T15:14:17.855Z,69.31
2019-02-28T15:16:47.583Z,69.20
2019-02-28T15:19:17.139Z,69.76
2019-02-28T15:21:46.688Z,70.47
2019-02-28T15:24:16.219Z,70.48
2019-02-28T15:26:45.724Z,70.20
2019-02-28T15:29:15.436Z,70.55
2019-02-28T15:31:44.970Z,70.29
2019-02-28T15:34:14.551Z,69.77
2019-02-28T15:36:44.517Z,69.37
2019-02-28T15:39:17.160Z,68.95
2019-02-28T15:41:45.499Z,68.45
2019-02-28T15:44:15.134Z,67.83
2019-02-28T15:46:47.545Z,67.64
2019-02-28T15:49:16.033Z,67.37
2019-02-28T15:51:47.972Z,67.11
2019-02-28T15:54:21.652Z,67.69
2019-02-28T15:56:55.154Z,67.85
2019-02-28T15:59:23.009Z,67.32
2019-02-28T16:01:52.707Z,67.04
2019-02-28T16:04:23.539Z,67.09
2019-02-28T16:06:57.922Z,67.78
2019-02-28T16:09:28.120Z,68.49
2019-02-28T16:11:59.383Z,68.82
2019-02-28T16:14:34.813Z,68.85
2019-02-28T16:17:03.571Z,69.15
2019-02-28T16:19:33.363Z,69.95
2019-02-28T16:22:02.943Z,70.23
2019-02-28T16:24:32.461Z,70.18
2019-02-28T16:27:02.232Z,70.51
2019-02-28T16:29:31.838Z,70.92
2019-02-28T16:32:01.734Z,72.14
2019-02-28T16:34:31.303Z,71.89
2019-02-28T16:37:01.863Z,71.66
2019-02-28T16:39:31.612Z,71.39
2019-02-28T16:42:01.215Z,71.11
2019-02-28T16:44:31.678Z,71.43
2019-02-28T16:47:01.724Z,72.09
2019-02-28T16:49:31.507Z,71.96
2019-02-28T16:52:02.607Z,71.60
2019-02-28T16:54:34.240Z,71.04
2019-02-28T16:57:03.785Z,71.11
2019-02-28T16:59:33.762Z,70.71
2019-02-28T17:02:03.541Z,70.30
2019-02-28T17:04:33.513Z,70.06
2019-02-28T17:07:03.201Z,69.80
2019-02-28T17:09:34.646Z,69.12
2019-02-28T17:12:05.918Z,69.24
2019-02-28T17:14:35.472Z,70.25
2019-02-28T17:17:08.719Z,69.61
2019-02-28T17:19:38.246Z,70.39
2019-02-28T17:22:07.926Z,70.85
2019-02-28T17:24:37.588Z,70.32
2019-02-28T17:27:11.311Z,69.59
2019-02-28T17:29:45.602Z,69.82
2019-02-28T17:32:15.190Z,69.65
2019-02-28T17:34:45.394Z,69.54
2019-02-28T17:37:15.065Z,68.88
2019-02-28T17:39:47.462Z,69.21
2019-02-28T17:42:16.051Z,69.92
2019-02-28T17:44:56.139Z,71.34
2019-02-28T17:47:33.110Z,71.64
2019-02-28T17:50:33.626Z,72.61
2019-02-28T17:53:36.910Z,72.50
2019-02-28T17:56:23.203Z,72.27
2019-02-28T17:59:18.672Z,73.94
2019-02-28T18:02:27.639Z,74.15
2019-02-28T18:05:40.362Z,74.35
2019-02-28T18:08:37.461Z,73.90
2019-02-28T18:11:34.115Z,73.12
2019-02-28T18:14:42.716Z,72.57
2019-02-28T18:17:34.965Z,72.36
2019-02-28T18:20:20.999Z,72.56
2019-02-28T18:23:07.386Z,71.69
2019-02-28T18:25:44.758Z,71.11
2019-02-28T18:28:41.654Z,72.34
2019-02-28T18:31:19.088Z,71.51
2019-02-28T18:33:52.348Z,71.26
2019-02-28T18:36:29.376Z,70.82
2019-02-28T18:38:59.006Z,70.26
2019-02-28T18:41:29.249Z,70.22
2019-02-28T18:43:59.937Z,70.66
2019-02-28T18:46:31.611Z,70.43
2019-02-28T18:49:01.208Z,70.85
2019-02-28T18:51:30.957Z,71.10
2019-02-28T18:54:01.038Z,70.88
2019-02-28T18:56:30.695Z,70.80
2019-02-28T18:59:00.264Z,70.81
2019-02-28T19:01:29.960Z,71.01
2019-02-28T19:03:59.490Z,71.23
2019-02-28T19:06:30.822Z,71.66
2019-02-28T19:09:04.836Z,72.34
2019-02-28T19:11:34.425Z,72.45
2019-02-28T19:14:04.074Z,72.77
2019-02-28T19:16:33.796Z,72.41
2019-02-28T19:19:03.372Z,72.31
2019-02-28T19:21:32.977Z,71.69
2019-02-28T19:24:02.633Z,70.89
2019-02-28T19:26:32.285Z,71.34
2019-02-28T19:29:01.802Z,72.24
2019-02-28T19:31:31.595Z,72.02
2019-02-28T19:34:01.124Z,72.39
2019-02-28T19:36:30.880Z,72.44
2019-02-28T19:39:00.705Z,73.34
2019-02-28T19:41:30.387Z,73.46
2019-02-28T19:44:00.494Z,72.75
2019-02-28T19:46:30.273Z,71.69
2019-02-28T19:48:59.942Z,71.58
2019-02-28T19:51:29.697Z,71.44
2019-02-28T19:53:59.433Z,70.96
2019-02-28T19:56:29.195Z,70.90
2019-02-28T19:58:58.981Z,71.14
2019-02-28T20:01:28.666Z,71.99
2019-02-28T20:03:58.201Z,71.93
2019-02-28T20:06:27.901Z,71.77
2019-02-28T20:08:57.625Z,72.12
2019-02-28T20:11:27.366Z,71.83
2019-02-28T20:13:57.262Z,71.46
2019-02-28T20:16:31.868Z,70.99
2019-02-28T20:19:01.467Z,70.34
2019-02-28T20:21:31.351Z,71.64
2019-02-28T20:24:01.445Z,72.40
2019-02-28T20:26:31.560Z,72.12
2019-02-28T20:29:01.252Z,71.85
2019-02-28T20:31:31.056Z,71.21
2019-02-28T20:34:00.687Z,71.30
2019-02-28T20:36:30.561Z,70.56
2019-02-28T20:39:00.842Z,70.43
2019-02-28T20:41:30.860Z,70.52
2019-02-28T20:44:01.656Z,70.87
2019-02-28T20:46:31.224Z,70.32
2019-02-28T20:49:00.995Z,70.17
2019-02-28T20:51:30.537Z,70.70
2019-02-28T20:54:00.297Z,71.04
2019-02-28T20:56:29.849Z,69.83
2019-02-28T20:58:59.585Z,69.76
2019-02-28T21:01:29.658Z,69.72
2019-02-28T21:03:59.350Z,69.52
2019-02-28T21:06:28.906Z,69.54
2019-02-28T21:09:05.105Z,69.40
2019-02-28T21:11:34.794Z,69.01
2019-02-28T21:14:04.673Z,69.72
2019-02-28T21:16:36.559Z,69.82
2019-02-28T21:19:06.340Z,69.99
2019-02-28T21:21:36.125Z,70.32
2019-02-28T21:24:05.992Z,70.58
2019-02-28T21:26:35.621Z,70.15
2019-02-28T21:29:05.207Z,70.17
2019-02-28T21:31:35.193Z,69.71
2019-02-28T21:34:05.389Z,70.16
2019-02-28T21:36:36.113Z,70.32
2019-02-28T21:39:08.427Z,70.58
2019-02-28T21:41:38.189Z,70.59
2019-02-28T21:44:10.656Z,69.97
2019-02-28T21:46:41.061Z,69.43
2019-02-28T21:49:10.685Z,69.82
2019-02-28T21:51:40.470Z,70.27
2019-02-28T21:54:11.389Z,70.39
2019-02-28T21:56:40.981Z,70.07
2019-02-28T21:59:10.650Z,70.08
2019-02-28T22:01:40.243Z,70.55
2019-02-28T22:04:10.139Z,70.06
2019-02-28T22:06:39.674Z,70.49
2019-02-28T22:09:09.844Z,70.23
2019-02-28T22:11:39.577Z,71.11
2019-02-28T22:14:10.717Z,70.50
2019-02-28T22:16:42.320Z,69.84
2019-02-28T22:19:11.993Z,69.86
2019-02-28T22:21:41.590Z,69.49
2019-02-28T22:24:11.247Z,69.57
2019-02-28T22:26:40.913Z,69.63
2019-02-28T22:29:10.662Z,69.77
2019-02-28T22:31:42.327Z,69.30
2019-02-28T22:34:13.615Z,69.11
2019-02-28T22:36:43.755Z,68.78
2019-02-28T22:39:14.779Z,69.14
2019-02-28T22:41:44.399Z,68.98
2019-02-28T22:44:14.078Z,69.18
2019-02-28T22:46:43.644Z,69.25
2019-02-28T22:49:13.436Z,69.31
2019-02-28T22:51:44.501Z,69.11
2019-02-28T22:54:14.090Z,68.64
2019-02-28T22:56:43.663Z,68.74
2019-02-28T22:59:13.260Z,68.70
2019-02-28T23:01:45.415Z,67.86
2019-02-28T23:04:16.719Z,68.42
2019-02-28T23:06:46.418Z,68.46
2019-02-28T23:09:16.125Z,68.67
2019-02-28T23:11:45.643Z,68.33
2019-02-28T23:14:17.906Z,68.49
2019-02-28T23:17:06.933Z,68.21
2019-02-28T23:19:36.660Z,67.59
2019-02-28T23:22:06.351Z,68.22
2019-02-28T23:24:36.073Z,68.42
2019-02-28T23:27:15.198Z,68.47
2019-02-28T23:29:49.494Z,68.71
2019-02-28T23:33:00.821Z,68.54
2019-02-28T23:35:34.276Z,68.58
2019-02-28T23:38:04.055Z,68.44
2019-02-28T23:40:35.530Z,67.98
2019-02-28T23:43:05.638Z,68.26
2019-02-28T23:45:35.306Z,68.50
2019-02-28T23:48:05.046Z,68.51
2019-02-28T23:50:34.707Z,68.66
2019-02-28T23:53:06.061Z,68.62
2019-02-28T23:55:38.628Z,68.30
2019-02-28T23:58:08.288Z,69.44
